createdAt,value
2022-09-01T00:00:03.655Z,15.80
2022-09-01T00:02:31.049Z,15.80
2022-09-01T00:04:58.979Z,15.80
2022-09-01T00:07:30.322Z,15.80
2022-09-01T00:09:59.552Z,15.80
2022-09-01T00:12:28.314Z,15.80
2022-09-01T00:14:55.499Z,15.80
2022-09-01T00:17:22.896Z,15.80
2022-09-01T00:19:49.907Z,15.80
2022-09-01T00:22:16.879Z,15.70
2022-09-01T00:24:44.102Z,15.60
2022-09-01T00:27:10.995Z,15.50
2022-09-01T00:29:38.079Z,15.50
2022-09-01T00:32:10.645Z,15.40
2022-09-01T00:34:37.622Z,15.40
2022-09-01T00:37:04.577Z,15.40
2022-09-01T00:39:31.518Z,15.40
2022-09-01T00:41:59.262Z,15.30
2022-09-01T00:44:29.776Z,15.20
2022-09-01T00:46:59.756Z,15.10
2022-09-01T00:49:35.995Z,15.10
2022-09-01T00:52:17.555Z,15.10
2022-09-01T00:54:50.046Z,15.00
2022-09-01T00:57:17.039Z,15.00
2022-09-01T00:59:57.498Z,15.00
2022-09-01T01:02:24.888Z,15.00
2022-09-01T01:04:52.746Z,14.90
2022-09-01T01:07:23.081Z,14.80
2022-09-01T01:09:51.232Z,14.80
2022-09-01T01:12:18.894Z,14.80
2022-09-01T01:14:50.814Z,14.70
2022-09-01T01:17:22.995Z,14.80
2022-09-01T01:20:13.061Z,14.70
2022-09-01T01:23:03.834Z,14.70
2022-09-01T01:25:53.417Z,14.70
2022-09-01T01:28:26.789Z,14.60
2022-09-01T01:31:11.989Z,14.70
2022-09-01T01:33:44.876Z,14.60
2022-09-01T01:36:17.701Z,14.60
2022-09-01T01:38:48.252Z,14.60
2022-09-01T01:41:19.724Z,14.60
2022-09-01T01:43:48.407Z,14.60
2022-09-01T01:46:19.248Z,14.50
2022-09-01T01:48:47.512Z,14.50
2022-09-01T01:51:20.190Z,14.40
2022-09-01T01:53:52.845Z,14.40
2022-09-01T01:56:20.244Z,14.30
2022-09-01T01:58:47.237Z,14.20
2022-09-01T02:01:14.517Z,14.20
2022-09-01T02:03:41.669Z,14.10
2022-09-01T02:06:12.120Z,14.00
2022-09-01T02:08:41.261Z,14.00
2022-09-01T02:11:09.099Z,13.90
2022-09-01T02:13:36.141Z,13.80
2022-09-01T02:16:13.653Z,13.80
2022-09-01T02:18:49.917Z,13.70
2022-09-01T02:21:20.487Z,13.70
2022-09-01T02:23:59.473Z,13.60
2022-09-01T02:26:40.675Z,13.60
2022-09-01T02:29:21.946Z,13.50
2022-09-01T02:31:53.360Z,13.40
2022-09-01T02:34:24.305Z,13.30
2022-09-01T02:36:54.986Z,13.30
2022-09-01T02:39:33.683Z,13.20
2022-09-01T02:42:01.178Z,13.20
2022-09-01T02:44:31.209Z,13.10
2022-09-01T02:46:58.841Z,13.10
2022-09-01T02:49:28.722Z,13.00
2022-09-01T02:52:01.417Z,13.00
2022-09-01T02:54:32.090Z,13.00
2022-09-01T02:56:59.449Z,13.00
2022-09-01T02:59:28.891Z,12.90
2022-09-01T03:01:57.564Z,12.90
2022-09-01T03:04:26.691Z,12.80
2022-09-01T03:06:54.958Z,12.70
2022-09-01T03:09:22.593Z,12.70
2022-09-01T03:11:53.383Z,12.80
2022-09-01T03:14:21.980Z,12.80
2022-09-01T03:16:49.045Z,12.80
2022-09-01T03:19:16.675Z,12.80
2022-09-01T03:26:50.016Z,12.80
2022-09-01T03:29:18.538Z,12.70
2022-09-01T03:31:45.602Z,12.70
2022-09-01T03:34:13.296Z,12.70
2022-09-01T03:36:40.771Z,12.80
2022-09-01T03:39:14.640Z,12.90
2022-09-01T03:41:44.955Z,12.90
2022-09-01T03:44:15.112Z,12.90
2022-09-01T03:46:43.711Z,12.80
2022-09-01T03:49:15.499Z,12.70
2022-09-01T03:51:45.127Z,12.70
2022-09-01T03:54:13.222Z,12.70
2022-09-01T03:56:41.617Z,12.60
2022-09-01T03:59:09.092Z,12.60
2022-09-01T04:01:43.830Z,12.60
2022-09-01T04:04:15.080Z,12.50
2022-09-01T04:06:44.444Z,12.50
2022-09-01T04:09:11.994Z,12.60
2022-09-01T04:11:42.544Z,12.60
2022-09-01T04:14:13.324Z,12.60
2022-09-01T04:16:58.913Z,12.60
2022-09-01T04:19:27.081Z,12.60
2022-09-01T04:21:59.117Z,12.60
2022-09-01T04:24:28.741Z,12.60
2022-09-01T04:26:58.760Z,12.60
2022-09-01T04:29:29.535Z,12.60
2022-09-01T04:32:03.824Z,12.60
2022-09-01T04:34:37.924Z,12.70
2022-09-01T04:37:15.323Z,12.70
2022-09-01T04:39:52.606Z,12.70
2022-09-01T04:42:24.235Z,12.80
2022-09-01T04:44:54.052Z,12.80
2022-09-01T04:47:31.692Z,12.90
2022-09-01T04:50:14.387Z,12.90
2022-09-01T04:52:42.745Z,13.00
2022-09-01T04:55:18.886Z,13.00
2022-09-01T04:57:49.435Z,13.10
2022-09-01T05:00:25.303Z,13.10
2022-09-01T05:03:01.289Z,13.20
2022-09-01T05:05:28.176Z,13.20
2022-09-01T05:07:55.528Z,13.30
2022-09-01T05:10:30.013Z,13.20
2022-09-01T05:12:57.267Z,13.30
2022-09-01T05:15:24.385Z,13.30
2022-09-01T05:17:52.612Z,13.30
2022-09-01T05:20:20.926Z,13.40
2022-09-01T05:22:47.938Z,13.40
2022-09-01T05:25:14.996Z,13.40
2022-09-01T05:27:52.600Z,13.40
2022-09-01T05:30:19.705Z,13.50
2022-09-01T05:32:49.036Z,13.50
2022-09-01T05:35:16.325Z,13.60
2022-09-01T05:37:43.631Z,13.60
2022-09-01T05:40:16.363Z,13.70
2022-09-01T05:42:44.930Z,13.70
2022-09-01T05:45:12.108Z,13.70
2022-09-01T05:47:41.821Z,13.80
2022-09-01T05:50:14.208Z,13.80
2022-09-01T05:52:44.451Z,13.90
2022-09-01T05:55:11.559Z,13.90
2022-09-01T05:57:39.933Z,13.90
2022-09-01T06:00:14.063Z,14.00
2022-09-01T06:02:43.090Z,14.10
2022-09-01T06:05:11.543Z,14.20
2022-09-01T06:07:42.955Z,14.20
2022-09-01T06:10:11.043Z,14.30
2022-09-01T06:12:38.471Z,14.50
2022-09-01T06:15:15.710Z,14.50
2022-09-01T06:17:44.147Z,14.70
2022-09-01T06:20:11.253Z,14.70
2022-09-01T06:22:38.300Z,14.80
2022-09-01T06:25:08.127Z,14.90
2022-09-01T06:27:38.669Z,15.00
2022-09-01T06:30:14.990Z,15.10
2022-09-01T06:32:45.418Z,15.20
2022-09-01T06:35:15.762Z,15.30
2022-09-01T06:37:45.861Z,15.40
2022-09-01T06:40:18.450Z,15.50
2022-09-01T06:42:48.088Z,15.50
2022-09-01T06:45:17.737Z,15.70
2022-09-01T06:47:45.514Z,15.80
2022-09-01T06:51:14.932Z,15.80
2022-09-01T06:55:57.713Z,16.00
2022-09-01T06:58:25.413Z,16.20
2022-09-01T07:00:52.974Z,16.20
2022-09-01T07:03:20.132Z,16.40
2022-09-01T07:06:01.408Z,16.50
2022-09-01T07:08:29.997Z,16.60
2022-09-01T07:16:52.545Z,16.70
2022-09-01T07:19:20.627Z,16.70
2022-09-01T07:24:36.051Z,16.90
2022-09-01T07:27:10.837Z,17.10
2022-09-01T07:29:39.399Z,17.30
2022-09-01T07:34:58.423Z,17.60
2022-09-01T07:43:19.605Z,17.90
2022-09-01T07:45:58.300Z,17.90
2022-09-01T07:48:36.912Z,17.90
2022-09-01T07:51:36.745Z,18.00
2022-09-01T07:54:04.594Z,18.00
2022-09-01T07:56:34.203Z,18.20
2022-09-01T07:59:03.447Z,18.20
2022-09-01T08:01:30.422Z,18.40
2022-09-01T08:04:02.315Z,18.50
2022-09-01T08:06:37.856Z,18.70
2022-09-01T08:09:11.543Z,18.80
2022-09-01T08:12:02.282Z,18.80
2022-09-01T08:14:33.716Z,18.90
2022-09-01T08:17:16.808Z,19.20
2022-09-01T08:19:44.514Z,19.50
2022-09-01T08:22:11.360Z,19.80
2022-09-01T08:24:38.285Z,20.20
2022-09-01T08:27:05.274Z,20.30
2022-09-01T08:29:33.183Z,20.50
2022-09-01T08:32:00.283Z,20.90
2022-09-01T08:34:27.388Z,20.60
2022-09-01T08:36:54.364Z,20.80
2022-09-01T08:39:21.693Z,21.10
2022-09-01T08:42:36.422Z,20.90
2022-09-01T08:45:34.234Z,21.00
2022-09-01T08:48:57.273Z,20.90
2022-09-01T08:51:21.963Z,21.00
2022-09-01T08:54:51.118Z,20.90
2022-09-01T08:57:20.382Z,21.30
2022-09-01T08:59:48.071Z,21.50
2022-09-01T09:02:45.172Z,21.00
2022-09-01T09:06:16.461Z,21.00
2022-09-01T09:08:55.282Z,20.80
2022-09-01T09:11:40.939Z,20.60
2022-09-01T09:14:38.641Z,20.50
2022-09-01T09:17:09.741Z,20.60
2022-09-01T09:19:43.786Z,20.80
2022-09-01T09:22:15.659Z,21.10
2022-09-01T09:25:08.951Z,21.00
2022-09-01T09:27:42.374Z,20.90
2022-09-01T09:30:23.906Z,21.10
2022-09-01T09:35:52.546Z,21.30
2022-09-01T09:38:30.259Z,21.40
2022-09-01T09:41:18.520Z,21.60
2022-09-01T09:44:05.267Z,22.10
2022-09-01T09:46:32.289Z,22.40
2022-09-01T09:49:36.346Z,22.30
2022-09-01T09:52:10.574Z,22.70
2022-09-01T09:54:41.990Z,23.10
2022-09-01T09:57:08.876Z,23.70
2022-09-01T09:59:57.058Z,24.20
2022-09-01T10:02:38.281Z,24.00
2022-09-01T10:05:44.394Z,24.10
2022-09-01T10:08:37.573Z,24.20
2022-09-01T10:11:08.121Z,24.00
2022-09-01T10:13:36.820Z,24.00
2022-09-01T10:16:10.547Z,24.00
2022-09-01T10:18:44.916Z,23.90
2022-09-01T10:21:16.207Z,23.90
2022-09-01T10:23:44.857Z,23.50
2022-09-01T10:26:19.914Z,22.90
2022-09-01T10:29:01.620Z,22.40
2022-09-01T10:31:32.864Z,21.90
2022-09-01T10:34:05.677Z,21.90
2022-09-01T10:36:36.707Z,21.70
2022-09-01T10:39:08.943Z,22.10
2022-09-01T10:42:00.091Z,22.20
2022-09-01T10:44:33.710Z,21.90
2022-09-01T10:47:33.483Z,21.80
2022-09-01T10:50:35.374Z,21.80
2022-09-01T10:53:06.202Z,22.00
2022-09-01T10:55:48.178Z,22.10
2022-09-01T11:01:24.874Z,22.60
2022-09-01T11:04:01.721Z,23.00
2022-09-01T11:07:17.227Z,23.00
2022-09-01T11:10:34.452Z,23.00
2022-09-01T11:13:15.763Z,23.30
2022-09-01T11:15:45.540Z,23.40
2022-09-01T11:18:26.077Z,23.30
2022-09-01T11:20:56.263Z,23.10
2022-09-01T11:23:34.449Z,23.60
2022-09-01T11:26:33.398Z,23.90
2022-09-01T11:29:01.687Z,24.20
2022-09-01T11:31:44.359Z,24.60
2022-09-01T11:34:20.326Z,24.60
2022-09-01T11:37:16.554Z,24.60
2022-09-01T11:39:50.244Z,24.00
2022-09-01T11:42:39.551Z,24.40
2022-09-01T11:45:21.496Z,24.50
2022-09-01T11:48:01.075Z,24.80
2022-09-01T11:50:33.759Z,25.00
2022-09-01T11:53:05.903Z,25.30
2022-09-01T11:55:47.065Z,24.80
2022-09-01T11:58:34.543Z,24.30
2022-09-01T12:01:34.014Z,24.40
2022-09-01T12:04:30.744Z,24.40
2022-09-01T12:07:05.466Z,24.40
2022-09-01T12:09:45.494Z,24.60
2022-09-01T12:12:39.307Z,24.50
2022-09-01T12:15:23.039Z,24.30
2022-09-01T12:17:50.201Z,24.40
2022-09-01T12:20:34.799Z,24.40
2022-09-01T12:23:02.492Z,24.30
2022-09-01T12:25:34.167Z,24.40
2022-09-01T12:28:06.268Z,24.70
2022-09-01T12:30:35.589Z,25.00
2022-09-01T12:33:23.570Z,25.50
2022-09-01T12:35:52.511Z,25.70
2022-09-01T12:38:21.207Z,26.40
2022-09-01T12:40:54.766Z,26.30
2022-09-01T12:43:38.752Z,26.20
2022-09-01T12:46:10.768Z,25.80
2022-09-01T12:48:41.531Z,26.10
2022-09-01T12:51:26.647Z,25.70
2022-09-01T12:53:59.627Z,25.50
2022-09-01T12:56:39.010Z,25.10
2022-09-01T12:59:17.246Z,25.00
2022-09-01T13:01:45.761Z,24.50
2022-09-01T13:04:26.535Z,24.40
2022-09-01T13:07:00.306Z,24.30
2022-09-01T13:09:27.224Z,24.00
2022-09-01T13:12:09.463Z,24.20
2022-09-01T13:14:36.457Z,24.30
2022-09-01T13:17:03.616Z,24.10
2022-09-01T13:19:30.820Z,24.00
2022-09-01T13:21:58.233Z,24.00
2022-09-01T13:24:28.709Z,24.10
2022-09-01T13:29:45.763Z,24.20
2022-09-01T13:32:21.433Z,24.00
2022-09-01T13:34:52.119Z,24.30
2022-09-01T13:37:21.723Z,25.80
2022-09-01T13:39:49.433Z,26.60
2022-09-01T13:42:17.488Z,26.60
2022-09-01T13:44:46.261Z,25.40
2022-09-01T13:47:30.387Z,25.80
2022-09-01T13:50:09.207Z,26.30
2022-09-01T13:52:39.841Z,27.20
2022-09-01T13:55:08.594Z,28.00
2022-09-01T13:57:36.351Z,28.40
2022-09-01T14:00:10.814Z,27.90
2022-09-01T14:02:40.839Z,27.40
2022-09-01T14:05:08.805Z,27.70
2022-09-01T14:07:35.820Z,28.20
2022-09-01T14:10:02.845Z,28.80
2022-09-01T14:12:30.267Z,30.30
2022-09-01T14:15:16.687Z,31.00
2022-09-01T14:17:47.075Z,30.50
2022-09-01T14:20:37.127Z,29.40
2022-09-01T14:23:06.541Z,28.90
2022-09-01T14:25:34.240Z,28.00
2022-09-01T14:28:02.110Z,28.00
2022-09-01T14:30:32.185Z,28.60
2022-09-01T14:33:03.783Z,28.20
2022-09-01T14:35:33.232Z,28.00
2022-09-01T14:38:01.682Z,27.80
2022-09-01T14:40:29.322Z,28.30
2022-09-01T14:42:56.830Z,29.30
2022-09-01T14:45:28.543Z,30.60
2022-09-01T14:47:59.078Z,30.60
2022-09-01T14:50:27.145Z,30.00
2022-09-01T14:52:56.925Z,29.50
2022-09-01T14:55:26.072Z,29.00
2022-09-01T14:57:54.594Z,28.70
2022-09-01T15:00:25.164Z,28.20
2022-09-01T15:02:54.064Z,27.80
2022-09-01T15:05:21.214Z,27.80
2022-09-01T15:07:48.442Z,28.50
2022-09-01T15:10:24.338Z,29.20
2022-09-01T15:12:55.028Z,29.70
2022-09-01T15:15:22.776Z,29.80
2022-09-01T15:17:50.057Z,30.20
2022-09-01T15:20:35.350Z,30.50
2022-09-01T15:23:02.440Z,31.00
2022-09-01T15:25:29.509Z,30.60
2022-09-01T15:27:56.635Z,30.80
2022-09-01T15:30:23.602Z,31.30
2022-09-01T15:32:54.165Z,31.40
2022-09-01T15:35:22.625Z,31.20
2022-09-01T15:37:51.796Z,31.50
2022-09-01T15:40:20.012Z,31.50
2022-09-01T15:42:47.102Z,31.70
2022-09-01T15:45:19.478Z,31.70
2022-09-01T15:47:48.338Z,31.70
2022-09-01T15:50:21.931Z,31.50
2022-09-01T15:52:57.545Z,31.80
2022-09-01T15:55:41.064Z,31.60
2022-09-01T15:58:10.781Z,31.90
2022-09-01T16:00:37.871Z,32.40
2022-09-01T16:03:06.448Z,33.50
2022-09-01T16:05:36.484Z,33.50
2022-09-01T16:08:08.369Z,33.50
2022-09-01T16:10:39.834Z,33.20
2022-09-01T16:13:07.331Z,32.90
2022-09-01T16:15:35.564Z,32.90
2022-09-01T16:18:46.924Z,32.50
2022-09-01T16:21:22.928Z,31.90
2022-09-01T16:23:52.418Z,31.50
2022-09-01T16:26:23.350Z,31.20
2022-09-01T16:28:55.980Z,30.50
2022-09-01T16:31:30.824Z,29.80
2022-09-01T16:34:13.975Z,29.50
2022-09-01T16:36:50.237Z,29.10
2022-09-01T16:39:25.253Z,29.20
2022-09-01T16:42:06.391Z,29.40
2022-09-01T16:45:20.235Z,29.70
2022-09-01T16:48:10.067Z,29.80
2022-09-01T16:50:52.794Z,29.80
2022-09-01T16:54:26.033Z,29.30
2022-09-01T16:57:40.390Z,28.90
2022-09-01T17:00:14.155Z,28.80
2022-09-01T17:03:02.208Z,28.30
2022-09-01T17:05:43.220Z,28.20
2022-09-01T17:08:25.680Z,27.80
2022-09-01T17:11:10.417Z,27.30
2022-09-01T17:13:43.848Z,27.00
2022-09-01T17:16:24.329Z,26.90
2022-09-01T17:18:56.728Z,26.40
2022-09-01T17:21:41.780Z,26.30
2022-09-01T17:24:27.977Z,26.10
2022-09-01T17:27:07.675Z,25.70
2022-09-01T17:29:51.947Z,25.40
2022-09-01T17:32:56.867Z,25.00
2022-09-01T17:35:32.010Z,24.70
2022-09-01T17:38:31.012Z,24.40
2022-09-01T17:41:13.534Z,24.20
2022-09-01T17:44:18.008Z,24.00
2022-09-01T17:47:13.037Z,23.70
2022-09-01T17:50:38.949Z,23.40
2022-09-01T17:53:52.998Z,23.10
2022-09-01T17:56:49.198Z,22.90
2022-09-01T17:59:29.392Z,22.70
2022-09-01T18:02:31.529Z,22.60
2022-09-01T18:05:03.911Z,22.40
2022-09-01T18:08:07.897Z,22.20
2022-09-01T18:10:46.135Z,22.00
2022-09-01T18:13:52.429Z,21.80
2022-09-01T18:16:26.821Z,21.70
2022-09-01T18:18:54.512Z,21.60
2022-09-01T18:21:29.700Z,21.50
2022-09-01T18:24:13.644Z,21.30
2022-09-01T18:26:45.115Z,21.10
2022-09-01T18:29:12.209Z,20.90
2022-09-01T18:31:57.745Z,20.70
2022-09-01T18:34:33.441Z,20.40
2022-09-01T18:37:26.583Z,20.20
2022-09-01T18:40:11.641Z,20.00
2022-09-01T18:42:56.622Z,19.90
2022-09-01T18:45:58.488Z,19.70
2022-09-01T18:48:50.257Z,19.60
2022-09-01T18:51:54.306Z,19.50
2022-09-01T18:54:50.933Z,19.50
2022-09-01T18:57:21.347Z,19.40
2022-09-01T19:00:33.113Z,19.30
2022-09-01T19:03:46.190Z,19.30
2022-09-01T19:06:46.138Z,19.30
2022-09-01T19:09:50.933Z,19.20
2022-09-01T19:12:42.197Z,19.20
2022-09-01T19:15:31.717Z,19.20
2022-09-01T19:18:17.245Z,19.20
2022-09-01T19:20:52.017Z,19.20
2022-09-01T19:23:27.087Z,19.20
2022-09-01T19:26:09.789Z,19.20
2022-09-01T19:28:41.569Z,19.20
2022-09-01T19:31:26.694Z,19.10
2022-09-01T19:34:01.340Z,19.10
2022-09-01T19:36:55.980Z,19.20
2022-09-01T19:39:44.609Z,19.20
2022-09-01T19:42:40.925Z,19.10
2022-09-01T19:45:15.223Z,18.90
2022-09-01T19:47:52.059Z,18.90
2022-09-01T19:50:47.935Z,18.90
2022-09-01T19:53:45.746Z,18.90
2022-09-01T19:56:49.872Z,18.80
2022-09-01T19:59:42.448Z,18.80
2022-09-01T20:02:28.901Z,18.70
2022-09-01T20:05:07.947Z,18.70
2022-09-01T20:07:46.655Z,18.70
2022-09-01T20:10:51.618Z,18.70
2022-09-01T20:13:44.757Z,18.80
2022-09-01T20:16:40.174Z,18.80
2022-09-01T20:19:31.420Z,18.90
2022-09-01T20:22:55.415Z,18.90
2022-09-01T20:25:32.917Z,18.90
2022-09-01T20:28:29.568Z,18.90
2022-09-01T20:31:12.267Z,18.80
2022-09-01T20:33:51.252Z,18.70
2022-09-01T20:36:43.142Z,18.70
2022-09-01T20:39:56.662Z,18.60
2022-09-01T20:42:39.316Z,18.50
2022-09-01T20:45:22.101Z,18.30
2022-09-01T20:48:01.716Z,18.30
2022-09-01T20:50:34.135Z,18.20
2022-09-01T20:53:31.718Z,18.10
2022-09-01T20:56:12.007Z,18.10
2022-09-01T20:59:10.729Z,18.00
2022-09-01T21:02:01.657Z,18.00
2022-09-01T21:04:53.128Z,18.00
2022-09-01T21:07:36.315Z,18.00
2022-09-01T21:10:45.387Z,17.90
2022-09-01T21:13:53.457Z,17.90
2022-09-01T21:16:57.918Z,17.80
2022-09-01T21:20:14.351Z,17.70
2022-09-01T21:22:41.352Z,17.70
2022-09-01T21:25:08.746Z,17.70
2022-09-01T21:27:51.285Z,17.70
2022-09-01T21:30:19.239Z,17.60
2022-09-01T21:32:46.658Z,17.60
2022-09-01T21:35:19.465Z,17.60
2022-09-01T21:37:46.428Z,17.60
2022-09-01T21:40:15.256Z,17.50
2022-09-01T21:42:48.843Z,17.50
2022-09-01T21:45:18.903Z,17.50
2022-09-01T21:47:48.288Z,17.40
2022-09-01T21:50:17.845Z,17.40
2022-09-01T21:52:45.039Z,17.30
2022-09-01T21:55:13.038Z,17.30
2022-09-01T21:57:40.331Z,17.30
2022-09-01T22:00:11.215Z,17.30
2022-09-01T22:02:38.234Z,17.30
2022-09-01T22:05:06.296Z,17.20
2022-09-01T22:07:36.020Z,17.20
2022-09-01T22:10:03.001Z,17.30
2022-09-01T22:12:30.148Z,17.30
2022-09-01T22:14:57.146Z,17.20
2022-09-01T22:17:24.207Z,17.20
2022-09-01T22:19:52.899Z,17.20
2022-09-01T22:22:19.789Z,17.20
2022-09-01T22:24:46.632Z,17.20
2022-09-01T22:27:13.524Z,17.30
2022-09-01T22:29:40.671Z,17.30
2022-09-01T22:32:08.309Z,17.30
2022-09-01T22:34:35.897Z,17.20
2022-09-01T22:37:03.558Z,17.30
2022-09-01T22:39:30.669Z,17.20
2022-09-01T22:41:57.689Z,17.30
2022-09-01T22:44:24.805Z,17.30
2022-09-01T22:46:51.777Z,17.30
2022-09-01T22:49:18.781Z,17.30
2022-09-01T22:51:46.070Z,17.30
2022-09-01T22:54:13.267Z,17.20
2022-09-01T22:56:41.729Z,17.20
2022-09-01T22:59:13.583Z,17.10
2022-09-01T23:01:44.995Z,17.10
2022-09-01T23:04:14.894Z,17.20
2022-09-01T23:06:49.463Z,17.10
2022-09-01T23:09:18.392Z,17.10
2022-09-01T23:11:46.458Z,17.10
2022-09-01T23:14:13.596Z,17.00
2022-09-01T23:16:40.882Z,17.00
2022-09-01T23:19:08.051Z,16.90
2022-09-01T23:21:38.088Z,16.90
2022-09-01T23:24:06.548Z,16.90
2022-09-01T23:26:34.797Z,16.80
2022-09-01T23:29:03.046Z,16.80
2022-09-01T23:31:34.598Z,16.70
2022-09-01T23:34:02.501Z,16.60
2022-09-01T23:36:29.953Z,16.60
2022-09-01T23:38:57.239Z,16.60
2022-09-01T23:41:30.975Z,16.60
2022-09-01T23:44:02.776Z,16.50
2022-09-01T23:46:38.026Z,16.50
2022-09-01T23:49:06.350Z,16.40
2022-09-01T23:51:33.510Z,16.30
2022-09-01T23:54:00.662Z,16.20
2022-09-01T23:56:29.449Z,16.20
2022-09-01T23:58:57.714Z,16.20
